sensor_id;sensor_type;location;lat;lon;timestamp;temperature;humidity
19348;DHT22;9810;52.480;9.806;2023-04-30T00:00:13;5.10;99.90
19348;DHT22;9810;52.480;9.806;2023-04-30T00:03:09;5.00;99.90
19348;DHT22;9810;52.480;9.806;2023-04-30T00:06:18;4.80;99.90
19348;DHT22;9810;52.480;9.806;2023-04-30T00:12:05;4.70;99.90
19348;DHT22;9810;52.480;9.806;2023-04-30T00:18:07;4.70;99.90
19348;DHT22;9810;52.480;9.806;2023-04-30T00:20:57;4.70;99.90
19348;DHT22;9810;52.480;9.806;2023-04-30T00:24:06;4.70;99.90
19348;DHT22;9810;52.480;9.806;2023-04-30T00:27:17;4.70;99.90
19348;DHT22;9810;52.480;9.806;2023-04-30T00:33:45;4.70;99.90
19348;DHT22;9810;52.480;9.806;2023-04-30T00:37:02;4.70;99.90
19348;DHT22;9810;52.480;9.806;2023-04-30T00:43:53;4.60;99.90
19348;DHT22;9810;52.480;9.806;2023-04-30T00:46:37;4.70;99.90
19348;DHT22;9810;52.480;9.806;2023-04-30T04:34:14;2.20;99.90
19348;DHT22;9810;52.480;9.806;2023-04-30T06:01:39;5.60;99.90
19348;DHT22;9810;52.480;9.806;2023-04-30T06:04:16;5.70;99.90
19348;DHT22;9810;52.480;9.806;2023-04-30T06:06:59;5.80;99.90
19348;DHT22;9810;52.480;9.806;2023-04-30T06:09:33;6.00;99.90
19348;DHT22;9810;52.480;9.806;2023-04-30T06:12:14;6.00;99.90
19348;DHT22;9810;52.480;9.806;2023-04-30T06:14:42;6.10;99.90
19348;DHT22;9810;52.480;9.806;2023-04-30T06:17:12;6.30;99.90
19348;DHT22;9810;52.480;9.806;2023-04-30T06:19:40;6.40;99.90
19348;DHT22;9810;52.480;9.806;2023-04-30T06:22:11;6.60;99.90
19348;DHT22;9810;52.480;9.806;2023-04-30T06:24:38;6.70;99.90
19348;DHT22;9810;52.480;9.806;2023-04-30T06:27:06;6.70;99.90
19348;DHT22;9810;52.480;9.806;2023-04-30T06:29:33;7.00;99.90
19348;DHT22;9810;52.480;9.806;2023-04-30T06:32:00;7.00;99.90
19348;DHT22;9810;52.480;9.806;2023-04-30T06:34:29;7.60;99.90
19348;DHT22;9810;52.480;9.806;2023-04-30T06:36:57;7.50;99.90
19348;DHT22;9810;52.480;9.806;2023-04-30T06:39:24;7.50;99.90
19348;DHT22;9810;52.480;9.806;2023-04-30T06:41:51;7.80;99.90
19348;DHT22;9810;52.480;9.806;2023-04-30T06:44:18;7.60;99.90
19348;DHT22;9810;52.480;9.806;2023-04-30T06:46:46;7.70;99.90
19348;DHT22;9810;52.480;9.806;2023-04-30T06:49:13;7.70;99.90
19348;DHT22;9810;52.480;9.806;2023-04-30T06:51:42;7.70;99.90
19348;DHT22;9810;52.480;9.806;2023-04-30T06:54:09;8.10;99.90
19348;DHT22;9810;52.480;9.806;2023-04-30T06:56:37;8.20;99.90
19348;DHT22;9810;52.480;9.806;2023-04-30T06:59:04;8.60;99.90
19348;DHT22;9810;52.480;9.806;2023-04-30T07:01:31;8.60;99.90
19348;DHT22;9810;52.480;9.806;2023-04-30T07:03:58;8.60;99.90
19348;DHT22;9810;52.480;9.806;2023-04-30T07:06:26;8.60;99.90
19348;DHT22;9810;52.480;9.806;2023-04-30T07:08:54;8.70;99.90
19348;DHT22;9810;52.480;9.806;2023-04-30T07:11:22;8.80;99.90
19348;DHT22;9810;52.480;9.806;2023-04-30T07:13:49;8.70;99.90
19348;DHT22;9810;52.480;9.806;2023-04-30T07:16:16;8.80;99.90
19348;DHT22;9810;52.480;9.806;2023-04-30T07:18:43;9.00;99.90
19348;DHT22;9810;52.480;9.806;2023-04-30T07:21:13;9.00;99.90
19348;DHT22;9810;52.480;9.806;2023-04-30T07:23:42;9.30;99.90
19348;DHT22;9810;52.480;9.806;2023-04-30T07:26:11;9.40;99.90
19348;DHT22;9810;52.480;9.806;2023-04-30T07:28:39;9.90;99.90
19348;DHT22;9810;52.480;9.806;2023-04-30T07:31:06;10.10;99.90
19348;DHT22;9810;52.480;9.806;2023-04-30T07:33:33;9.70;99.90
19348;DHT22;9810;52.480;9.806;2023-04-30T07:36:01;9.60;99.90
19348;DHT22;9810;52.480;9.806;2023-04-30T07:38:28;9.60;99.90
19348;DHT22;9810;52.480;9.806;2023-04-30T07:40:55;10.40;99.90
19348;DHT22;9810;52.480;9.806;2023-04-30T07:43:24;11.20;99.90
19348;DHT22;9810;52.480;9.806;2023-04-30T07:45:52;12.20;99.90
19348;DHT22;9810;52.480;9.806;2023-04-30T07:48:19;12.90;99.90
19348;DHT22;9810;52.480;9.806;2023-04-30T07:50:47;13.60;99.90
19348;DHT22;9810;52.480;9.806;2023-04-30T07:53:14;13.40;99.90
19348;DHT22;9810;52.480;9.806;2023-04-30T07:55:42;12.30;99.90
19348;DHT22;9810;52.480;9.806;2023-04-30T07:58:09;11.20;99.90
19348;DHT22;9810;52.480;9.806;2023-04-30T08:00:38;11.70;99.90
19348;DHT22;9810;52.480;9.806;2023-04-30T08:03:06;11.90;99.90
19348;DHT22;9810;52.480;9.806;2023-04-30T08:05:33;13.10;99.90
19348;DHT22;9810;52.480;9.806;2023-04-30T08:08:01;13.50;99.90
19348;DHT22;9810;52.480;9.806;2023-04-30T08:10:28;14.40;99.90
19348;DHT22;9810;52.480;9.806;2023-04-30T08:12:55;13.40;99.90
19348;DHT22;9810;52.480;9.806;2023-04-30T08:15:23;13.30;99.90
19348;DHT22;9810;52.480;9.806;2023-04-30T08:17:52;14.00;99.90
19348;DHT22;9810;52.480;9.806;2023-04-30T08:20:19;15.10;99.90
19348;DHT22;9810;52.480;9.806;2023-04-30T08:22:47;14.30;99.90
19348;DHT22;9810;52.480;9.806;2023-04-30T08:25:15;14.80;99.90
19348;DHT22;9810;52.480;9.806;2023-04-30T08:27:43;16.00;99.90
19348;DHT22;9810;52.480;9.806;2023-04-30T08:30:11;16.00;99.90
19348;DHT22;9810;52.480;9.806;2023-04-30T08:32:38;15.20;99.90
19348;DHT22;9810;52.480;9.806;2023-04-30T08:35:09;16.20;99.90
19348;DHT22;9810;52.480;9.806;2023-04-30T08:37:36;15.60;99.90
19348;DHT22;9810;52.480;9.806;2023-04-30T08:40:04;16.30;99.90
19348;DHT22;9810;52.480;9.806;2023-04-30T08:42:36;16.30;99.90
19348;DHT22;9810;52.480;9.806;2023-04-30T08:45:04;16.10;99.90
19348;DHT22;9810;52.480;9.806;2023-04-30T08:47:33;15.80;99.90
19348;DHT22;9810;52.480;9.806;2023-04-30T08:50:00;16.50;99.90
19348;DHT22;9810;52.480;9.806;2023-04-30T08:52:31;16.20;99.90
19348;DHT22;9810;52.480;9.806;2023-04-30T08:55:00;16.10;99.90
19348;DHT22;9810;52.480;9.806;2023-04-30T08:57:27;16.70;99.90
19348;DHT22;9810;52.480;9.806;2023-04-30T08:59:57;16.60;99.90
19348;DHT22;9810;52.480;9.806;2023-04-30T09:02:26;16.30;99.90
19348;DHT22;9810;52.480;9.806;2023-04-30T09:04:53;16.30;99.90
19348;DHT22;9810;52.480;9.806;2023-04-30T09:07:23;17.10;99.90
19348;DHT22;9810;52.480;9.806;2023-04-30T09:09:54;17.70;99.90
19348;DHT22;9810;52.480;9.806;2023-04-30T09:12:22;17.70;99.90
19348;DHT22;9810;52.480;9.806;2023-04-30T09:15:00;17.10;99.90
19348;DHT22;9810;52.480;9.806;2023-04-30T09:17:29;16.90;99.90
19348;DHT22;9810;52.480;9.806;2023-04-30T09:20:06;17.60;99.90
19348;DHT22;9810;52.480;9.806;2023-04-30T09:22:34;17.80;99.90
19348;DHT22;9810;52.480;9.806;2023-04-30T09:25:05;16.30;99.90
19348;DHT22;9810;52.480;9.806;2023-04-30T09:27:32;16.40;99.90
19348;DHT22;9810;52.480;9.806;2023-04-30T09:30:00;16.70;99.90
19348;DHT22;9810;52.480;9.806;2023-04-30T09:32:27;17.70;99.90
19348;DHT22;9810;52.480;9.806;2023-04-30T09:34:55;17.20;99.90
19348;DHT22;9810;52.480;9.806;2023-04-30T09:37:34;17.50;99.90
19348;DHT22;9810;52.480;9.806;2023-04-30T09:40:04;18.40;99.90
19348;DHT22;9810;52.480;9.806;2023-04-30T09:42:32;17.90;99.90
19348;DHT22;9810;52.480;9.806;2023-04-30T09:44:59;17.90;99.90
19348;DHT22;9810;52.480;9.806;2023-04-30T09:47:29;17.70;99.90
19348;DHT22;9810;52.480;9.806;2023-04-30T09:49:58;17.60;99.90
19348;DHT22;9810;52.480;9.806;2023-04-30T09:52:26;18.10;99.90
19348;DHT22;9810;52.480;9.806;2023-04-30T09:54:53;18.20;99.90
19348;DHT22;9810;52.480;9.806;2023-04-30T09:57:23;17.60;99.90
19348;DHT22;9810;52.480;9.806;2023-04-30T09:59:51;17.00;99.90
19348;DHT22;9810;52.480;9.806;2023-04-30T10:02:20;17.40;99.90
19348;DHT22;9810;52.480;9.806;2023-04-30T10:04:52;17.90;99.90
19348;DHT22;9810;52.480;9.806;2023-04-30T10:07:20;17.90;99.90
19348;DHT22;9810;52.480;9.806;2023-04-30T10:09:56;17.60;99.90
19348;DHT22;9810;52.480;9.806;2023-04-30T10:12:33;17.40;99.90
19348;DHT22;9810;52.480;9.806;2023-04-30T10:15:09;17.20;99.90
19348;DHT22;9810;52.480;9.806;2023-04-30T10:17:38;17.80;99.90
19348;DHT22;9810;52.480;9.806;2023-04-30T10:20:08;16.80;99.90
19348;DHT22;9810;52.480;9.806;2023-04-30T10:22:36;17.10;99.90
19348;DHT22;9810;52.480;9.806;2023-04-30T10:25:06;17.30;99.90
19348;DHT22;9810;52.480;9.806;2023-04-30T10:27:38;18.00;99.90
19348;DHT22;9810;52.480;9.806;2023-04-30T10:30:09;16.20;99.90
19348;DHT22;9810;52.480;9.806;2023-04-30T10:32:40;15.90;99.90
19348;DHT22;9810;52.480;9.806;2023-04-30T10:35:14;16.00;99.90
19348;DHT22;9810;52.480;9.806;2023-04-30T10:37:46;17.40;99.90
19348;DHT22;9810;52.480;9.806;2023-04-30T10:40:17;17.40;99.90
19348;DHT22;9810;52.480;9.806;2023-04-30T10:42:47;17.60;99.90
19348;DHT22;9810;52.480;9.806;2023-04-30T10:45:15;17.30;99.90
19348;DHT22;9810;52.480;9.806;2023-04-30T10:47:54;16.90;99.90
19348;DHT22;9810;52.480;9.806;2023-04-30T10:50:25;17.00;99.90
19348;DHT22;9810;52.480;9.806;2023-04-30T10:53:01;16.20;99.90
19348;DHT22;9810;52.480;9.806;2023-04-30T10:55:30;16.60;99.90
19348;DHT22;9810;52.480;9.806;2023-04-30T10:58:22;17.40;99.90
19348;DHT22;9810;52.480;9.806;2023-04-30T11:00:50;17.60;99.90
19348;DHT22;9810;52.480;9.806;2023-04-30T11:03:27;17.60;99.90
19348;DHT22;9810;52.480;9.806;2023-04-30T11:05:55;17.20;99.90
19348;DHT22;9810;52.480;9.806;2023-04-30T11:08:32;16.00;99.90
19348;DHT22;9810;52.480;9.806;2023-04-30T11:11:00;16.30;99.90
19348;DHT22;9810;52.480;9.806;2023-04-30T11:13:39;14.30;99.90
19348;DHT22;9810;52.480;9.806;2023-04-30T11:16:08;15.00;99.90
19348;DHT22;9810;52.480;9.806;2023-04-30T11:18:41;15.80;99.90
19348;DHT22;9810;52.480;9.806;2023-04-30T11:21:08;15.70;99.90
19348;DHT22;9810;52.480;9.806;2023-04-30T11:23:40;15.50;99.90
19348;DHT22;9810;52.480;9.806;2023-04-30T11:26:08;14.50;99.90
19348;DHT22;9810;52.480;9.806;2023-04-30T11:28:36;15.60;99.90
19348;DHT22;9810;52.480;9.806;2023-04-30T11:31:05;15.80;99.90
19348;DHT22;9810;52.480;9.806;2023-04-30T11:33:33;15.50;99.90
19348;DHT22;9810;52.480;9.806;2023-04-30T11:36:01;15.00;99.90
19348;DHT22;9810;52.480;9.806;2023-04-30T11:38:29;15.50;99.90
19348;DHT22;9810;52.480;9.806;2023-04-30T11:40:58;15.90;99.90
19348;DHT22;9810;52.480;9.806;2023-04-30T11:43:26;15.70;99.90
19348;DHT22;9810;52.480;9.806;2023-04-30T11:46:07;15.60;99.90
19348;DHT22;9810;52.480;9.806;2023-04-30T11:48:36;15.30;99.90
19348;DHT22;9810;52.480;9.806;2023-04-30T11:51:05;15.50;99.90
19348;DHT22;9810;52.480;9.806;2023-04-30T11:53:35;16.00;99.90
19348;DHT22;9810;52.480;9.806;2023-04-30T11:56:03;15.70;99.90
19348;DHT22;9810;52.480;9.806;2023-04-30T11:58:34;15.60;99.90
19348;DHT22;9810;52.480;9.806;2023-04-30T12:01:03;15.70;99.90
19348;DHT22;9810;52.480;9.806;2023-04-30T12:03:32;15.80;99.90
19348;DHT22;9810;52.480;9.806;2023-04-30T12:05:59;15.70;99.90
19348;DHT22;9810;52.480;9.806;2023-04-30T12:08:27;16.20;99.90
19348;DHT22;9810;52.480;9.806;2023-04-30T12:10:55;16.20;99.90
19348;DHT22;9810;52.480;9.806;2023-04-30T12:13:22;16.30;99.90
19348;DHT22;9810;52.480;9.806;2023-04-30T12:15:59;15.40;99.90
19348;DHT22;9810;52.480;9.806;2023-04-30T12:18:27;15.30;99.90
19348;DHT22;9810;52.480;9.806;2023-04-30T12:20:56;15.80;99.90
19348;DHT22;9810;52.480;9.806;2023-04-30T12:23:24;16.00;99.90
19348;DHT22;9810;52.480;9.806;2023-04-30T12:25:51;16.30;99.90
19348;DHT22;9810;52.480;9.806;2023-04-30T12:28:18;16.20;99.90
19348;DHT22;9810;52.480;9.806;2023-04-30T12:30:46;15.80;99.90
19348;DHT22;9810;52.480;9.806;2023-04-30T12:33:17;16.00;99.90
19348;DHT22;9810;52.480;9.806;2023-04-30T12:35:44;15.40;99.90
19348;DHT22;9810;52.480;9.806;2023-04-30T12:38:15;15.90;99.90
19348;DHT22;9810;52.480;9.806;2023-04-30T12:40:46;15.50;99.90
19348;DHT22;9810;52.480;9.806;2023-04-30T12:43:15;15.40;99.90
19348;DHT22;9810;52.480;9.806;2023-04-30T12:45:47;14.90;99.90
19348;DHT22;9810;52.480;9.806;2023-04-30T12:48:16;15.40;99.90
19348;DHT22;9810;52.480;9.806;2023-04-30T12:50:49;15.50;99.90
19348;DHT22;9810;52.480;9.806;2023-04-30T12:53:19;15.70;99.90
19348;DHT22;9810;52.480;9.806;2023-04-30T12:56:07;15.60;99.90
19348;DHT22;9810;52.480;9.806;2023-04-30T12:58:36;15.30;99.90
19348;DHT22;9810;52.480;9.806;2023-04-30T13:01:04;15.80;99.90
19348;DHT22;9810;52.480;9.806;2023-04-30T13:03:32;16.00;99.90
19348;DHT22;9810;52.480;9.806;2023-04-30T13:05:59;15.70;99.90
19348;DHT22;9810;52.480;9.806;2023-04-30T13:08:31;15.40;99.90
19348;DHT22;9810;52.480;9.806;2023-04-30T13:10:58;16.10;99.90
19348;DHT22;9810;52.480;9.806;2023-04-30T13:13:26;16.30;99.90
19348;DHT22;9810;52.480;9.806;2023-04-30T13:15:53;15.60;99.90
19348;DHT22;9810;52.480;9.806;2023-04-30T13:18:21;16.00;99.90
19348;DHT22;9810;52.480;9.806;2023-04-30T13:20:48;15.30;99.90
19348;DHT22;9810;52.480;9.806;2023-04-30T13:23:16;15.30;99.90
19348;DHT22;9810;52.480;9.806;2023-04-30T13:25:45;16.00;99.90
19348;DHT22;9810;52.480;9.806;2023-04-30T13:28:12;16.50;99.90
19348;DHT22;9810;52.480;9.806;2023-04-30T13:30:40;16.10;99.90
19348;DHT22;9810;52.480;9.806;2023-04-30T13:33:08;16.00;99.90
19348;DHT22;9810;52.480;9.806;2023-04-30T13:35:38;16.20;99.90
19348;DHT22;9810;52.480;9.806;2023-04-30T13:38:05;16.30;99.90
19348;DHT22;9810;52.480;9.806;2023-04-30T13:40:32;16.60;99.90
19348;DHT22;9810;52.480;9.806;2023-04-30T13:43:01;16.50;99.90
19348;DHT22;9810;52.480;9.806;2023-04-30T13:45:29;16.60;99.90
19348;DHT22;9810;52.480;9.806;2023-04-30T13:47:56;16.40;99.90
19348;DHT22;9810;52.480;9.806;2023-04-30T13:50:24;16.60;99.90
19348;DHT22;9810;52.480;9.806;2023-04-30T13:52:51;16.20;99.90
19348;DHT22;9810;52.480;9.806;2023-04-30T13:55:18;16.50;99.90
19348;DHT22;9810;52.480;9.806;2023-04-30T13:57:46;16.80;99.90
19348;DHT22;9810;52.480;9.806;2023-04-30T14:00:16;16.80;99.90
19348;DHT22;9810;52.480;9.806;2023-04-30T14:02:44;16.20;99.90
19348;DHT22;9810;52.480;9.806;2023-04-30T14:05:11;16.40;99.90
19348;DHT22;9810;52.480;9.806;2023-04-30T14:07:38;16.10;99.90
19348;DHT22;9810;52.480;9.806;2023-04-30T14:10:07;16.40;99.90
19348;DHT22;9810;52.480;9.806;2023-04-30T14:12:34;16.50;99.90
19348;DHT22;9810;52.480;9.806;2023-04-30T14:15:03;16.40;99.90
19348;DHT22;9810;52.480;9.806;2023-04-30T14:17:32;16.30;99.90
19348;DHT22;9810;52.480;9.806;2023-04-30T14:20:02;16.30;99.90
19348;DHT22;9810;52.480;9.806;2023-04-30T14:22:29;16.10;99.90
19348;DHT22;9810;52.480;9.806;2023-04-30T14:24:59;16.30;99.90
19348;DHT22;9810;52.480;9.806;2023-04-30T14:27:26;16.60;99.90
19348;DHT22;9810;52.480;9.806;2023-04-30T14:29:53;16.60;99.90
19348;DHT22;9810;52.480;9.806;2023-04-30T14:32:23;16.40;99.90
19348;DHT22;9810;52.480;9.806;2023-04-30T14:34:52;16.20;99.90
19348;DHT22;9810;52.480;9.806;2023-04-30T14:37:20;16.20;99.90
19348;DHT22;9810;52.480;9.806;2023-04-30T14:39:47;16.60;99.90
19348;DHT22;9810;52.480;9.806;2023-04-30T14:42:15;16.40;99.90
19348;DHT22;9810;52.480;9.806;2023-04-30T14:44:42;16.40;99.90
19348;DHT22;9810;52.480;9.806;2023-04-30T14:47:09;16.60;99.90
19348;DHT22;9810;52.480;9.806;2023-04-30T14:49:37;16.70;99.90
19348;DHT22;9810;52.480;9.806;2023-04-30T14:52:06;16.80;99.90
19348;DHT22;9810;52.480;9.806;2023-04-30T14:54:33;16.80;99.90
19348;DHT22;9810;52.480;9.806;2023-04-30T14:57:01;16.50;99.90
19348;DHT22;9810;52.480;9.806;2023-04-30T14:59:30;16.10;99.90
19348;DHT22;9810;52.480;9.806;2023-04-30T15:01:59;16.20;99.90
19348;DHT22;9810;52.480;9.806;2023-04-30T15:04:26;16.50;99.90
19348;DHT22;9810;52.480;9.806;2023-04-30T15:06:54;16.60;99.90
19348;DHT22;9810;52.480;9.806;2023-04-30T15:09:23;16.60;99.90
19348;DHT22;9810;52.480;9.806;2023-04-30T15:11:51;16.70;99.90
19348;DHT22;9810;52.480;9.806;2023-04-30T15:14:18;16.90;99.90
19348;DHT22;9810;52.480;9.806;2023-04-30T15:16:45;16.50;99.90
19348;DHT22;9810;52.480;9.806;2023-04-30T15:19:12;16.70;99.90
19348;DHT22;9810;52.480;9.806;2023-04-30T15:21:40;16.60;99.90
19348;DHT22;9810;52.480;9.806;2023-04-30T15:24:07;16.80;99.90
19348;DHT22;9810;52.480;9.806;2023-04-30T15:26:36;16.80;99.90
19348;DHT22;9810;52.480;9.806;2023-04-30T15:29:04;16.70;99.90
19348;DHT22;9810;52.480;9.806;2023-04-30T15:31:31;17.00;99.90
19348;DHT22;9810;52.480;9.806;2023-04-30T15:34:00;16.60;99.90
19348;DHT22;9810;52.480;9.806;2023-04-30T15:36:27;16.60;99.90
19348;DHT22;9810;52.480;9.806;2023-04-30T15:38:54;16.60;99.90
19348;DHT22;9810;52.480;9.806;2023-04-30T15:41:21;16.60;99.90
19348;DHT22;9810;52.480;9.806;2023-04-30T15:43:50;16.30;99.90
19348;DHT22;9810;52.480;9.806;2023-04-30T15:46:18;16.40;99.90
19348;DHT22;9810;52.480;9.806;2023-04-30T15:48:45;16.70;99.90
19348;DHT22;9810;52.480;9.806;2023-04-30T15:51:13;16.40;99.90
19348;DHT22;9810;52.480;9.806;2023-04-30T15:53:40;16.50;99.90
19348;DHT22;9810;52.480;9.806;2023-04-30T15:56:07;16.30;99.70
19348;DHT22;9810;52.480;9.806;2023-04-30T15:58:35;16.40;99.90
19348;DHT22;9810;52.480;9.806;2023-04-30T16:01:04;16.80;99.90
19348;DHT22;9810;52.480;9.806;2023-04-30T16:03:31;16.80;99.60
19348;DHT22;9810;52.480;9.806;2023-04-30T16:05:59;16.40;98.40
19348;DHT22;9810;52.480;9.806;2023-04-30T16:08:27;16.40;99.90
19348;DHT22;9810;52.480;9.806;2023-04-30T16:10:55;16.20;98.50
19348;DHT22;9810;52.480;9.806;2023-04-30T16:13:22;16.30;99.40
19348;DHT22;9810;52.480;9.806;2023-04-30T16:15:49;16.40;99.90
19348;DHT22;9810;52.480;9.806;2023-04-30T16:18:18;16.10;99.00
19348;DHT22;9810;52.480;9.806;2023-04-30T16:20:48;16.20;99.90
19348;DHT22;9810;52.480;9.806;2023-04-30T16:23:16;15.90;98.30
19348;DHT22;9810;52.480;9.806;2023-04-30T16:25:43;15.90;99.90
19348;DHT22;9810;52.480;9.806;2023-04-30T16:28:10;15.80;99.80
19348;DHT22;9810;52.480;9.806;2023-04-30T16:30:38;15.90;99.90
19348;DHT22;9810;52.480;9.806;2023-04-30T16:33:07;16.10;99.90
19348;DHT22;9810;52.480;9.806;2023-04-30T16:35:36;16.20;99.40
19348;DHT22;9810;52.480;9.806;2023-04-30T16:38:04;16.10;97.40
19348;DHT22;9810;52.480;9.806;2023-04-30T16:40:32;16.10;97.10
19348;DHT22;9810;52.480;9.806;2023-04-30T16:43:00;16.10;96.30
19348;DHT22;9810;52.480;9.806;2023-04-30T16:45:27;16.00;97.80
19348;DHT22;9810;52.480;9.806;2023-04-30T16:47:54;16.00;98.70
19348;DHT22;9810;52.480;9.806;2023-04-30T16:50:22;15.90;98.30
19348;DHT22;9810;52.480;9.806;2023-04-30T16:52:52;15.80;98.20
19348;DHT22;9810;52.480;9.806;2023-04-30T16:55:20;15.70;97.30
19348;DHT22;9810;52.480;9.806;2023-04-30T16:57:47;15.60;95.40
19348;DHT22;9810;52.480;9.806;2023-04-30T17:00:15;15.60;96.20
19348;DHT22;9810;52.480;9.806;2023-04-30T17:02:43;15.60;95.90
19348;DHT22;9810;52.480;9.806;2023-04-30T17:05:14;15.60;96.20
19348;DHT22;9810;52.480;9.806;2023-04-30T17:07:42;15.50;95.00
19348;DHT22;9810;52.480;9.806;2023-04-30T17:10:11;15.50;94.60
19348;DHT22;9810;52.480;9.806;2023-04-30T17:12:39;15.50;99.00
19348;DHT22;9810;52.480;9.806;2023-04-30T17:15:07;15.40;98.00
19348;DHT22;9810;52.480;9.806;2023-04-30T17:17:34;15.30;97.10
19348;DHT22;9810;52.480;9.806;2023-04-30T17:20:02;15.20;96.40
19348;DHT22;9810;52.480;9.806;2023-04-30T17:22:29;15.20;96.60
19348;DHT22;9810;52.480;9.806;2023-04-30T17:24:57;15.00;96.40
19348;DHT22;9810;52.480;9.806;2023-04-30T17:27:26;15.00;96.50
19348;DHT22;9810;52.480;9.806;2023-04-30T17:29:53;15.00;97.40
19348;DHT22;9810;52.480;9.806;2023-04-30T17:32:21;15.00;98.00
19348;DHT22;9810;52.480;9.806;2023-04-30T17:34:51;14.80;99.90
19348;DHT22;9810;52.480;9.806;2023-04-30T17:37:18;14.60;99.90
19348;DHT22;9810;52.480;9.806;2023-04-30T17:39:46;14.60;98.90
19348;DHT22;9810;52.480;9.806;2023-04-30T17:42:13;14.50;99.90
19348;DHT22;9810;52.480;9.806;2023-04-30T17:44:42;14.60;97.80
19348;DHT22;9810;52.480;9.806;2023-04-30T17:47:09;14.60;97.30
19348;DHT22;9810;52.480;9.806;2023-04-30T17:49:37;14.40;99.90
19348;DHT22;9810;52.480;9.806;2023-04-30T17:52:04;14.30;99.90
19348;DHT22;9810;52.480;9.806;2023-04-30T17:54:32;14.20;99.90
19348;DHT22;9810;52.480;9.806;2023-04-30T17:56:59;14.20;99.90
19348;DHT22;9810;52.480;9.806;2023-04-30T17:59:28;14.10;98.30
19348;DHT22;9810;52.480;9.806;2023-04-30T18:01:57;14.10;99.30
19348;DHT22;9810;52.480;9.806;2023-04-30T18:04:24;14.10;97.50
19348;DHT22;9810;52.480;9.806;2023-04-30T18:06:52;14.00;97.60
19348;DHT22;9810;52.480;9.806;2023-04-30T18:09:19;13.90;99.40
19348;DHT22;9810;52.480;9.806;2023-04-30T18:11:47;13.70;99.90
19348;DHT22;9810;52.480;9.806;2023-04-30T18:14:14;13.70;99.10
19348;DHT22;9810;52.480;9.806;2023-04-30T18:16:41;13.40;99.90
19348;DHT22;9810;52.480;9.806;2023-04-30T18:19:10;13.20;99.90
19348;DHT22;9810;52.480;9.806;2023-04-30T18:21:38;13.10;99.90
19348;DHT22;9810;52.480;9.806;2023-04-30T18:24:05;13.00;99.90
19348;DHT22;9810;52.480;9.806;2023-04-30T18:26:33;12.90;99.90
19348;DHT22;9810;52.480;9.806;2023-04-30T18:29:00;12.90;99.90
19348;DHT22;9810;52.480;9.806;2023-04-30T18:31:29;12.90;99.90
19348;DHT22;9810;52.480;9.806;2023-04-30T18:33:56;12.80;99.90
19348;DHT22;9810;52.480;9.806;2023-04-30T18:36:25;12.60;99.90
19348;DHT22;9810;52.480;9.806;2023-04-30T18:38:52;12.50;99.90
19348;DHT22;9810;52.480;9.806;2023-04-30T18:41:20;12.10;99.90
19348;DHT22;9810;52.480;9.806;2023-04-30T18:43:47;11.90;99.90
19348;DHT22;9810;52.480;9.806;2023-04-30T18:46:15;11.80;99.90
19348;DHT22;9810;52.480;9.806;2023-04-30T18:48:42;11.70;99.90
19348;DHT22;9810;52.480;9.806;2023-04-30T18:51:09;11.50;99.90
19348;DHT22;9810;52.480;9.806;2023-04-30T18:53:38;11.30;99.90
19348;DHT22;9810;52.480;9.806;2023-04-30T18:56:06;11.20;99.90
19348;DHT22;9810;52.480;9.806;2023-04-30T18:58:34;11.20;99.90
19348;DHT22;9810;52.480;9.806;2023-04-30T19:01:01;11.10;99.90
19348;DHT22;9810;52.480;9.806;2023-04-30T19:03:28;10.80;99.90
19348;DHT22;9810;52.480;9.806;2023-04-30T19:05:57;10.60;99.90
19348;DHT22;9810;52.480;9.806;2023-04-30T19:08:24;10.20;99.90
19348;DHT22;9810;52.480;9.806;2023-04-30T19:10:54;10.10;99.90
19348;DHT22;9810;52.480;9.806;2023-04-30T19:13:21;10.10;99.90
19348;DHT22;9810;52.480;9.806;2023-04-30T19:15:48;9.70;99.90
19348;DHT22;9810;52.480;9.806;2023-04-30T19:18:17;9.50;99.90
19348;DHT22;9810;52.480;9.806;2023-04-30T19:20:54;9.30;99.90
19348;DHT22;9810;52.480;9.806;2023-04-30T19:23:22;9.10;99.90
19348;DHT22;9810;52.480;9.806;2023-04-30T19:25:49;9.10;99.90
19348;DHT22;9810;52.480;9.806;2023-04-30T19:28:18;9.10;99.90
19348;DHT22;9810;52.480;9.806;2023-04-30T19:30:46;9.10;99.90
19348;DHT22;9810;52.480;9.806;2023-04-30T19:33:16;8.90;99.90
19348;DHT22;9810;52.480;9.806;2023-04-30T19:35:47;8.70;99.90
19348;DHT22;9810;52.480;9.806;2023-04-30T19:38:14;8.70;99.90
19348;DHT22;9810;52.480;9.806;2023-04-30T19:40:45;8.70;99.90
19348;DHT22;9810;52.480;9.806;2023-04-30T19:43:12;8.50;99.90
19348;DHT22;9810;52.480;9.806;2023-04-30T19:45:46;8.40;99.90
19348;DHT22;9810;52.480;9.806;2023-04-30T19:48:13;8.30;99.90
19348;DHT22;9810;52.480;9.806;2023-04-30T19:50:41;8.20;99.90
19348;DHT22;9810;52.480;9.806;2023-04-30T19:53:10;8.10;99.90
19348;DHT22;9810;52.480;9.806;2023-04-30T19:55:38;8.10;99.90
19348;DHT22;9810;52.480;9.806;2023-04-30T19:58:05;8.00;99.90
19348;DHT22;9810;52.480;9.806;2023-04-30T20:00:35;8.00;99.90
19348;DHT22;9810;52.480;9.806;2023-04-30T20:03:05;7.90;99.90
19348;DHT22;9810;52.480;9.806;2023-04-30T20:05:33;7.80;99.90
19348;DHT22;9810;52.480;9.806;2023-04-30T20:08:00;7.70;99.90
19348;DHT22;9810;52.480;9.806;2023-04-30T20:10:28;7.80;99.90
19348;DHT22;9810;52.480;9.806;2023-04-30T20:12:55;7.80;99.90
19348;DHT22;9810;52.480;9.806;2023-04-30T20:15:22;7.80;99.90
19348;DHT22;9810;52.480;9.806;2023-04-30T20:17:51;7.80;99.90
19348;DHT22;9810;52.480;9.806;2023-04-30T20:20:21;7.80;99.90
19348;DHT22;9810;52.480;9.806;2023-04-30T20:22:50;7.80;99.90
19348;DHT22;9810;52.480;9.806;2023-04-30T20:25:18;7.80;99.90
19348;DHT22;9810;52.480;9.806;2023-04-30T20:27:45;7.80;99.90
19348;DHT22;9810;52.480;9.806;2023-04-30T20:30:12;7.80;99.90
19348;DHT22;9810;52.480;9.806;2023-04-30T20:32:39;7.80;99.90
19348;DHT22;9810;52.480;9.806;2023-04-30T20:35:07;7.70;99.90
19348;DHT22;9810;52.480;9.806;2023-04-30T20:37:36;7.60;99.90
19348;DHT22;9810;52.480;9.806;2023-04-30T20:40:05;7.30;99.90
19348;DHT22;9810;52.480;9.806;2023-04-30T20:42:33;7.20;99.90
19348;DHT22;9810;52.480;9.806;2023-04-30T20:45:00;6.90;99.90
19348;DHT22;9810;52.480;9.806;2023-04-30T20:47:28;7.00;99.90
19348;DHT22;9810;52.480;9.806;2023-04-30T20:49:56;7.00;99.90
19348;DHT22;9810;52.480;9.806;2023-04-30T20:52:24;7.10;99.90
19348;DHT22;9810;52.480;9.806;2023-04-30T20:54:53;7.20;99.90
19348;DHT22;9810;52.480;9.806;2023-04-30T20:57:20;7.10;99.90
19348;DHT22;9810;52.480;9.806;2023-04-30T20:59:48;7.20;99.90
19348;DHT22;9810;52.480;9.806;2023-04-30T21:02:15;7.30;99.90
19348;DHT22;9810;52.480;9.806;2023-04-30T21:04:42;7.30;99.90
19348;DHT22;9810;52.480;9.806;2023-04-30T21:07:11;7.30;99.90
19348;DHT22;9810;52.480;9.806;2023-04-30T21:09:39;7.30;99.90
19348;DHT22;9810;52.480;9.806;2023-04-30T21:12:08;7.20;99.90
19348;DHT22;9810;52.480;9.806;2023-04-30T21:14:36;7.00;99.90
19348;DHT22;9810;52.480;9.806;2023-04-30T21:17:03;7.00;99.90
19348;DHT22;9810;52.480;9.806;2023-04-30T21:19:31;6.90;99.90
19348;DHT22;9810;52.480;9.806;2023-04-30T21:21:59;7.00;99.90
19348;DHT22;9810;52.480;9.806;2023-04-30T21:24:29;7.20;99.90
19348;DHT22;9810;52.480;9.806;2023-04-30T21:26:57;7.60;99.90